Meramec River (Missouri), Eureka (07019000)

StateMissouriLatestUnknown (4610 cfs)
RiverMeramec RiverRatingObservedEstimated
Updated2021-03-03 13:30 (49 minutes ago)Flood - The river is flooding. Obstacles can be treacherous or deadly. The river should be avoided at this stage for casual trips and definitely for the inexperienced. Trips should be attempted only with protective gear and equipment.Flood(none)(none)
Discharge4610 cfs (median: 2440 cfs)High - The river is high and potentially dangerous, especially for the young and / or inexperienced. Normal stream obstacles are sometimes difficult to navigate. Extended distances can be attempted, but canoe travel may not be advisable.High(none)(none)
Height6.07 feetGood - Conditions are ideal for a canoe or kayak. Boats typically will drag on fewer than one-quarter of riffles, if at all, and portages are unnecessary or rare. Normal float lengths can be attempted without a problem.Good(none)(none)
TrendFalling (falling over 24 hours)Low - River is low but can still be floated. Some riffles are okay but most come with significant dragging and might need a portage. Float lengths should be reduced to accommodate low flow, dragging, and portages.Low(none)(none)
USGSExternal icon USGS Site (External icon Google Maps)Poor - River is too low to float comfortably. Most or all riffles will drag or must be portaged and some obstacles (such as slick shelf rock) cause undue problems. Avoid the river at this stage for casual paddling trips.Poor(none)(none)

Trending Data

Plot Image

Trips for Meramec River (Missouri), Eureka (07019000)

DateStartEndDistanceConditionDischargeHeightFishingDetails

A total of 0 rows are displayed.

Condition Descriptions

Fishing Conditions

Fish Species

Notes

Classic Trip List

The classic River Trips application is still available for use. It is updated with the new system using a data retrofit. It is no longer maintained. The original River Trips application is no longer updated (as of 1 Dec 2016) but can be checked for errors or for the condition of the data before it was converted to the new system.

Gauge Data Table

ObservationHeightDischargeMaximum
Discharge
Minimum
Discharge
Mean
Discharge
P05P10P20P25P50
(Median)
P75P80P90P95
2021-03-03 13:30 6.07 4610 20300 (1945) 542 (1954) 3510 725 968 1440 1510 2440 4570 5490 7360 8930
2021-03-03 13:00 6.10 4660 20300 (1945) 542 (1954) 3510 725 968 1440 1510 2440 4570 5490 7360 8930
2021-03-03 12:30 6.09 4640 20300 (1945) 542 (1954) 3510 725 968 1440 1510 2440 4570 5490 7360 8930
2021-03-03 12:00 6.11 4670 20300 (1945) 542 (1954) 3510 725 968 1440 1510 2440 4570 5490 7360 8930
2021-03-03 11:30 6.12 4690 20300 (1945) 542 (1954) 3510 725 968 1440 1510 2440 4570 5490 7360 8930
2021-03-03 11:00 6.12 4690 20300 (1945) 542 (1954) 3510 725 968 1440 1510 2440 4570 5490 7360 8930
2021-03-03 10:30 6.13 4710 20300 (1945) 542 (1954) 3510 725 968 1440 1510 2440 4570 5490 7360 8930
2021-03-03 10:00 6.12 4690 20300 (1945) 542 (1954) 3510 725 968 1440 1510 2440 4570 5490 7360 8930
2021-03-03 09:30 6.14 4720 20300 (1945) 542 (1954) 3510 725 968 1440 1510 2440 4570 5490 7360 8930
2021-03-03 09:00 6.17 4770 20300 (1945) 542 (1954) 3510 725 968 1440 1510 2440 4570 5490 7360 8930
2021-03-03 08:30 6.18 4790 20300 (1945) 542 (1954) 3510 725 968 1440 1510 2440 4570 5490 7360 8930
2021-03-03 08:00 6.18 4790 20300 (1945) 542 (1954) 3510 725 968 1440 1510 2440 4570 5490 7360 8930
2021-03-03 07:30 6.19 4810 20300 (1945) 542 (1954) 3510 725 968 1440 1510 2440 4570 5490 7360 8930
2021-03-03 07:00 6.21 4840 20300 (1945) 542 (1954) 3510 725 968 1440 1510 2440 4570 5490 7360 8930
2021-03-03 06:30 6.21 4840 20300 (1945) 542 (1954) 3510 725 968 1440 1510 2440 4570 5490 7360 8930
2021-03-03 06:00 6.21 4840 20300 (1945) 542 (1954) 3510 725 968 1440 1510 2440 4570 5490 7360 8930
2021-03-03 05:30 6.22 4860 20300 (1945) 542 (1954) 3510 725 968 1440 1510 2440 4570 5490 7360 8930
2021-03-03 05:00 6.24 4890 20300 (1945) 542 (1954) 3510 725 968 1440 1510 2440 4570 5490 7360 8930
2021-03-03 04:30 6.27 4940 20300 (1945) 542 (1954) 3510 725 968 1440 1510 2440 4570 5490 7360 8930
2021-03-03 04:00 6.25 4910 20300 (1945) 542 (1954) 3510 725 968 1440 1510 2440 4570 5490 7360 8930
2021-03-03 03:30 6.27 4940 20300 (1945) 542 (1954) 3510 725 968 1440 1510 2440 4570 5490 7360 8930
2021-03-03 03:00 6.28 4960 20300 (1945) 542 (1954) 3510 725 968 1440 1510 2440 4570 5490 7360 8930
2021-03-03 02:30 6.29 4970 20300 (1945) 542 (1954) 3510 725 968 1440 1510 2440 4570 5490 7360 8930
2021-03-03 02:00 6.31 5010 20300 (1945) 542 (1954) 3510 725 968 1440 1510 2440 4570 5490 7360 8930
2021-03-03 01:30 6.31 5010 20300 (1945) 542 (1954) 3510 725 968 1440 1510 2440 4570 5490 7360 8930
2021-03-03 01:00 6.33 5040 20300 (1945) 542 (1954) 3510 725 968 1440 1510 2440 4570 5490 7360 8930
2021-03-03 00:30 6.34 5060 20300 (1945) 542 (1954) 3510 725 968 1440 1510 2440 4570 5490 7360 8930
2021-03-03 00:00 6.35 5070 20300 (1945) 542 (1954) 3510 725 968 1440 1510 2440 4570 5490 7360 8930
2021-03-02 23:30 6.36 5090 32200 (1997) 517 (1954) 3870 751 968 1270 1500 2370 4560 5590 8410 11400
2021-03-02 23:00 6.37 5110 32200 (1997) 517 (1954) 3870 751 968 1270 1500 2370 4560 5590 8410 11400
2021-03-02 22:30 6.36 5090 32200 (1997) 517 (1954) 3870 751 968 1270 1500 2370 4560 5590 8410 11400
2021-03-02 22:00 6.38 5120 32200 (1997) 517 (1954) 3870 751 968 1270 1500 2370 4560 5590 8410 11400
2021-03-02 21:30 6.39 5140 32200 (1997) 517 (1954) 3870 751 968 1270 1500 2370 4560 5590 8410 11400
2021-03-02 21:00 6.39 5140 32200 (1997) 517 (1954) 3870 751 968 1270 1500 2370 4560 5590 8410 11400
2021-03-02 20:30 6.43 5210 32200 (1997) 517 (1954) 3870 751 968 1270 1500 2370 4560 5590 8410 11400
2021-03-02 20:00 6.44 5220 32200 (1997) 517 (1954) 3870 751 968 1270 1500 2370 4560 5590 8410 11400
2021-03-02 19:30 6.45 5240 32200 (1997) 517 (1954) 3870 751 968 1270 1500 2370 4560 5590 8410 11400
2021-03-02 19:00 6.47 5280 32200 (1997) 517 (1954) 3870 751 968 1270 1500 2370 4560 5590 8410 11400
2021-03-02 18:30 6.47 5280 32200 (1997) 517 (1954) 3870 751 968 1270 1500 2370 4560 5590 8410 11400
2021-03-02 18:00 6.48 5290 32200 (1997) 517 (1954) 3870 751 968 1270 1500 2370 4560 5590 8410 11400
2021-03-02 17:30 6.48 5290 32200 (1997) 517 (1954) 3870 751 968 1270 1500 2370 4560 5590 8410 11400
2021-03-02 17:00 6.51 5340 32200 (1997) 517 (1954) 3870 751 968 1270 1500 2370 4560 5590 8410 11400
2021-03-02 16:30 6.52 5360 32200 (1997) 517 (1954) 3870 751 968 1270 1500 2370 4560 5590 8410 11400
2021-03-02 16:00 6.51 5340 32200 (1997) 517 (1954) 3870 751 968 1270 1500 2370 4560 5590 8410 11400
2021-03-02 15:30 6.54 5390 32200 (1997) 517 (1954) 3870 751 968 1270 1500 2370 4560 5590 8410 11400
2021-03-02 15:00 6.53 5380 32200 (1997) 517 (1954) 3870 751 968 1270 1500 2370 4560 5590 8410 11400
2021-03-02 14:30 6.56 5430 32200 (1997) 517 (1954) 3870 751 968 1270 1500 2370 4560 5590 8410 11400
2021-03-02 14:00 6.56 5430 32200 (1997) 517 (1954) 3870 751 968 1270 1500 2370 4560 5590 8410 11400
2021-03-02 13:30 6.56 5430 32200 (1997) 517 (1954) 3870 751 968 1270 1500 2370 4560 5590 8410 11400
2021-03-02 13:00 6.59 5480 32200 (1997) 517 (1954) 3870 751 968 1270 1500 2370 4560 5590 8410 11400
2021-03-02 12:30 6.59 5480 32200 (1997) 517 (1954) 3870 751 968 1270 1500 2370 4560 5590 8410 11400
2021-03-02 12:00 6.59 5480 32200 (1997) 517 (1954) 3870 751 968 1270 1500 2370 4560 5590 8410 11400
2021-03-02 11:00 6.61 5510 32200 (1997) 517 (1954) 3870 751 968 1270 1500 2370 4560 5590 8410 11400
2021-03-02 10:30 6.62 5530 32200 (1997) 517 (1954) 3870 751 968 1270 1500 2370 4560 5590 8410 11400
2021-03-02 10:00 6.64 5570 32200 (1997) 517 (1954) 3870 751 968 1270 1500 2370 4560 5590 8410 11400
2021-03-02 09:30 6.62 5530 32200 (1997) 517 (1954) 3870 751 968 1270 1500 2370 4560 5590 8410 11400
2021-03-02 09:00 6.64 5570 32200 (1997) 517 (1954) 3870 751 968 1270 1500 2370 4560 5590 8410 11400
2021-03-02 08:30 6.64 5570 32200 (1997) 517 (1954) 3870 751 968 1270 1500 2370 4560 5590 8410 11400
2021-03-02 08:00 6.64 5570 32200 (1997) 517 (1954) 3870 751 968 1270 1500 2370 4560 5590 8410 11400
2021-03-02 07:30 6.65 5580 32200 (1997) 517 (1954) 3870 751 968 1270 1500 2370 4560 5590 8410 11400
2021-03-02 07:00 6.65 5580 32200 (1997) 517 (1954) 3870 751 968 1270 1500 2370 4560 5590 8410 11400
2021-03-02 06:30 6.64 5570 32200 (1997) 517 (1954) 3870 751 968 1270 1500 2370 4560 5590 8410 11400
2021-03-02 06:00 6.66 5600 32200 (1997) 517 (1954) 3870 751 968 1270 1500 2370 4560 5590 8410 11400
2021-03-02 05:30 6.65 5580 32200 (1997) 517 (1954) 3870 751 968 1270 1500 2370 4560 5590 8410 11400
2021-03-02 05:00 6.66 5600 32200 (1997) 517 (1954) 3870 751 968 1270 1500 2370 4560 5590 8410 11400
2021-03-02 04:30 6.67 5620 32200 (1997) 517 (1954) 3870 751 968 1270 1500 2370 4560 5590 8410 11400
2021-03-02 04:00 6.65 5580 32200 (1997) 517 (1954) 3870 751 968 1270 1500 2370 4560 5590 8410 11400
2021-03-02 03:30 6.67 5620 32200 (1997) 517 (1954) 3870 751 968 1270 1500 2370 4560 5590 8410 11400
2021-03-02 03:00 6.67 5620 32200 (1997) 517 (1954) 3870 751 968 1270 1500 2370 4560 5590 8410 11400
2021-03-02 02:30 6.67 5620 32200 (1997) 517 (1954) 3870 751 968 1270 1500 2370 4560 5590 8410 11400
2021-03-02 02:00 6.65 5580 32200 (1997) 517 (1954) 3870 751 968 1270 1500 2370 4560 5590 8410 11400
2021-03-02 01:30 6.67 5620 32200 (1997) 517 (1954) 3870 751 968 1270 1500 2370 4560 5590 8410 11400
2021-03-02 01:00 6.65 5580 32200 (1997) 517 (1954) 3870 751 968 1270 1500 2370 4560 5590 8410 11400
2021-03-02 00:30 6.65 5580 32200 (1997) 517 (1954) 3870 751 968 1270 1500 2370 4560 5590 8410 11400
2021-03-02 00:00 6.65 5580 32200 (1997) 517 (1954) 3870 751 968 1270 1500 2370 4560 5590 8410 11400
2021-03-01 23:30 6.65 5580 39800 (1997) 517 (1954) 4120 727 971 1300 1420 2510 5020 5530 9510 10800
2021-03-01 23:00 6.64 5570 39800 (1997) 517 (1954) 4120 727 971 1300 1420 2510 5020 5530 9510 10800
2021-03-01 22:30 6.63 5550 39800 (1997) 517 (1954) 4120 727 971 1300 1420 2510 5020 5530 9510 10800
2021-03-01 22:00 6.65 5580 39800 (1997) 517 (1954) 4120 727 971 1300 1420 2510 5020 5530 9510 10800
2021-03-01 21:30 6.65 5580 39800 (1997) 517 (1954) 4120 727 971 1300 1420 2510 5020 5530 9510 10800
2021-03-01 21:00 6.64 5570 39800 (1997) 517 (1954) 4120 727 971 1300 1420 2510 5020 5530 9510 10800
2021-03-01 20:30 6.64 5570 39800 (1997) 517 (1954) 4120 727 971 1300 1420 2510 5020 5530 9510 10800
2021-03-01 20:00 6.62 5530 39800 (1997) 517 (1954) 4120 727 971 1300 1420 2510 5020 5530 9510 10800
2021-03-01 19:30 6.64 5570 39800 (1997) 517 (1954) 4120 727 971 1300 1420 2510 5020 5530 9510 10800
2021-03-01 19:00 6.64 5570 39800 (1997) 517 (1954) 4120 727 971 1300 1420 2510 5020 5530 9510 10800
2021-03-01 18:30 6.64 5570 39800 (1997) 517 (1954) 4120 727 971 1300 1420 2510 5020 5530 9510 10800
2021-03-01 18:00 6.63 5550 39800 (1997) 517 (1954) 4120 727 971 1300 1420 2510 5020 5530 9510 10800
2021-03-01 17:30 6.61 5510 39800 (1997) 517 (1954) 4120 727 971 1300 1420 2510 5020 5530 9510 10800
2021-03-01 17:00 6.63 5550 39800 (1997) 517 (1954) 4120 727 971 1300 1420 2510 5020 5530 9510 10800
2021-03-01 16:30 6.62 5530 39800 (1997) 517 (1954) 4120 727 971 1300 1420 2510 5020 5530 9510 10800
2021-03-01 16:00 6.59 5480 39800 (1997) 517 (1954) 4120 727 971 1300 1420 2510 5020 5530 9510 10800
2021-03-01 15:30 6.61 5510 39800 (1997) 517 (1954) 4120 727 971 1300 1420 2510 5020 5530 9510 10800
2021-03-01 15:00 6.59 5480 39800 (1997) 517 (1954) 4120 727 971 1300 1420 2510 5020 5530 9510 10800
2021-03-01 14:30 6.57 5450 39800 (1997) 517 (1954) 4120 727 971 1300 1420 2510 5020 5530 9510 10800
2021-03-01 14:00 6.56 5430 39800 (1997) 517 (1954) 4120 727 971 1300 1420 2510 5020 5530 9510 10800
2021-03-01 13:30 6.53 5380 39800 (1997) 517 (1954) 4120 727 971 1300 1420 2510 5020 5530 9510 10800
2021-03-01 13:00 6.51 5340 39800 (1997) 517 (1954) 4120 727 971 1300 1420 2510 5020 5530 9510 10800
2021-03-01 12:30 6.49 5310 39800 (1997) 517 (1954) 4120 727 971 1300 1420 2510 5020 5530 9510 10800
2021-03-01 12:00 6.45 5240 39800 (1997) 517 (1954) 4120 727 971 1300 1420 2510 5020 5530 9510 10800
2021-03-01 11:30 6.41 5170 39800 (1997) 517 (1954) 4120 727 971 1300 1420 2510 5020 5530 9510 10800
2021-03-01 11:00 6.40 5160 39800 (1997) 517 (1954) 4120 727 971 1300 1420 2510 5020 5530 9510 10800
2021-03-01 10:30 6.36 5090 39800 (1997) 517 (1954) 4120 727 971 1300 1420 2510 5020 5530 9510 10800
2021-03-01 10:00 6.34 5060 39800 (1997) 517 (1954) 4120 727 971 1300 1420 2510 5020 5530 9510 10800
2021-03-01 09:30 6.31 5010 39800 (1997) 517 (1954) 4120 727 971 1300 1420 2510 5020 5530 9510 10800
2021-03-01 09:00 6.26 4920 39800 (1997) 517 (1954) 4120 727 971 1300 1420 2510 5020 5530 9510 10800
2021-03-01 08:30 6.22 4860 39800 (1997) 517 (1954) 4120 727 971 1300 1420 2510 5020 5530 9510 10800
2021-03-01 08:00 6.18 4790 39800 (1997) 517 (1954) 4120 727 971 1300 1420 2510 5020 5530 9510 10800
2021-03-01 07:30 6.16 4760 39800 (1997) 517 (1954) 4120 727 971 1300 1420 2510 5020 5530 9510 10800
2021-03-01 07:00 6.13 4710 39800 (1997) 517 (1954) 4120 727 971 1300 1420 2510 5020 5530 9510 10800
2021-03-01 06:30 6.10 4660 39800 (1997) 517 (1954) 4120 727 971 1300 1420 2510 5020 5530 9510 10800
2021-03-01 06:00 6.08 4630 39800 (1997) 517 (1954) 4120 727 971 1300 1420 2510 5020 5530 9510 10800
2021-03-01 05:30 6.04 4560 39800 (1997) 517 (1954) 4120 727 971 1300 1420 2510 5020 5530 9510 10800
2021-03-01 05:00 5.99 4480 39800 (1997) 517 (1954) 4120 727 971 1300 1420 2510 5020 5530 9510 10800
2021-03-01 04:30 5.98 4460 39800 (1997) 517 (1954) 4120 727 971 1300 1420 2510 5020 5530 9510 10800
2021-03-01 04:00 5.98 4460 39800 (1997) 517 (1954) 4120 727 971 1300 1420 2510 5020 5530 9510 10800
2021-03-01 03:30 5.94 4400 39800 (1997) 517 (1954) 4120 727 971 1300 1420 2510 5020 5530 9510 10800
2021-03-01 03:00 5.94 4400 39800 (1997) 517 (1954) 4120 727 971 1300 1420 2510 5020 5530 9510 10800
2021-03-01 02:30 5.91 4350 39800 (1997) 517 (1954) 4120 727 971 1300 1420 2510 5020 5530 9510 10800
2021-03-01 02:00 5.90 4330 39800 (1997) 517 (1954) 4120 727 971 1300 1420 2510 5020 5530 9510 10800
2021-03-01 01:30 5.87 4280 39800 (1997) 517 (1954) 4120 727 971 1300 1420 2510 5020 5530 9510 10800
2021-03-01 01:00 5.87 4280 39800 (1997) 517 (1954) 4120 727 971 1300 1420 2510 5020 5530 9510 10800
2021-03-01 00:30 5.86 4270 39800 (1997) 517 (1954) 4120 727 971 1300 1420 2510 5020 5530 9510 10800
2021-03-01 00:00 5.86 4270 39800 (1997) 517 (1954) 4120 727 971 1300 1420 2510 5020 5530 9510 10800
2021-02-28 23:30 5.86 4270 34900 (2018) 517 (1954) 4800 736 955 1330 1470 2430 5100 6050 11200 22400
2021-02-28 23:00 5.86 4270 34900 (2018) 517 (1954) 4800 736 955 1330 1470 2430 5100 6050 11200 22400
2021-02-28 22:30 5.85 4250 34900 (2018) 517 (1954) 4800 736 955 1330 1470 2430 5100 6050 11200 22400
2021-02-28 22:00 5.84 4240 34900 (2018) 517 (1954) 4800 736 955 1330 1470 2430 5100 6050 11200 22400
2021-02-28 21:30 5.84 4240 34900 (2018) 517 (1954) 4800 736 955 1330 1470 2430 5100 6050 11200 22400
2021-02-28 21:00 5.83 4220 34900 (2018) 517 (1954) 4800 736 955 1330 1470 2430 5100 6050 11200 22400
2021-02-28 20:30 5.82 4200 34900 (2018) 517 (1954) 4800 736 955 1330 1470 2430 5100 6050 11200 22400
2021-02-28 20:00 5.83 4220 34900 (2018) 517 (1954) 4800 736 955 1330 1470 2430 5100 6050 11200 22400
2021-02-28 19:30 5.81 4190 34900 (2018) 517 (1954) 4800 736 955 1330 1470 2430 5100 6050 11200 22400
2021-02-28 19:00 5.82 4200 34900 (2018) 517 (1954) 4800 736 955 1330 1470 2430 5100 6050 11200 22400
2021-02-28 18:30 5.80 4170 34900 (2018) 517 (1954) 4800 736 955 1330 1470 2430 5100 6050 11200 22400
2021-02-28 18:00 5.77 4120 34900 (2018) 517 (1954) 4800 736 955 1330 1470 2430 5100 6050 11200 22400
2021-02-28 17:30 5.76 4110 34900 (2018) 517 (1954) 4800 736 955 1330 1470 2430 5100 6050 11200 22400
2021-02-28 17:00 5.75 4090 34900 (2018) 517 (1954) 4800 736 955 1330 1470 2430 5100 6050 11200 22400
2021-02-28 16:30 5.73 4060 34900 (2018) 517 (1954) 4800 736 955 1330 1470 2430 5100 6050 11200 22400
2021-02-28 16:00 5.72 4050 34900 (2018) 517 (1954) 4800 736 955 1330 1470 2430 5100 6050 11200 22400
2021-02-28 15:30 5.70 4010 34900 (2018) 517 (1954) 4800 736 955 1330 1470 2430 5100 6050 11200 22400
2021-02-28 15:00 5.66 3950 34900 (2018) 517 (1954) 4800 736 955 1330 1470 2430 5100 6050 11200 22400
2021-02-28 14:30 5.65 3930 34900 (2018) 517 (1954) 4800 736 955 1330 1470 2430 5100 6050 11200 22400
2021-02-28 14:00 5.62 3890 34900 (2018) 517 (1954) 4800 736 955 1330 1470 2430 5100 6050 11200 22400
2021-02-28 13:30 5.61 3870 34900 (2018) 517 (1954) 4800 736 955 1330 1470 2430 5100 6050 11200 22400
2021-02-28 13:00 5.59 3840 34900 (2018) 517 (1954) 4800 736 955 1330 1470 2430 5100 6050 11200 22400
2021-02-28 12:30 5.57 3810 34900 (2018) 517 (1954) 4800 736 955 1330 1470 2430 5100 6050 11200 22400
2021-02-28 12:00 5.56 3790 34900 (2018) 517 (1954) 4800 736 955 1330 1470 2430 5100 6050 11200 22400
2021-02-28 11:30 5.55 3780 34900 (2018) 517 (1954) 4800 736 955 1330 1470 2430 5100 6050 11200 22400
2021-02-28 11:00 5.54 3760 34900 (2018) 517 (1954) 4800 736 955 1330 1470 2430 5100 6050 11200 22400
2021-02-28 10:30 5.51 3720 34900 (2018) 517 (1954) 4800 736 955 1330 1470 2430 5100 6050 11200 22400
2021-02-28 10:00 5.49 3690 34900 (2018) 517 (1954) 4800 736 955 1330 1470 2430 5100 6050 11200 22400
2021-02-28 09:30 5.44 3610 34900 (2018) 517 (1954) 4800 736 955 1330 1470 2430 5100 6050 11200 22400
2021-02-28 09:00 5.41 3560 34900 (2018) 517 (1954) 4800 736 955 1330 1470 2430 5100 6050 11200 22400
2021-02-28 08:30 5.41 3560 34900 (2018) 517 (1954) 4800 736 955 1330 1470 2430 5100 6050 11200 22400
2021-02-28 08:00 5.38 3520 34900 (2018) 517 (1954) 4800 736 955 1330 1470 2430 5100 6050 11200 22400
2021-02-28 07:30 5.36 3490 34900 (2018) 517 (1954) 4800 736 955 1330 1470 2430 5100 6050 11200 22400
2021-02-28 07:00 5.33 3440 34900 (2018) 517 (1954) 4800 736 955 1330 1470 2430 5100 6050 11200 22400
2021-02-28 06:30 5.31 3410 34900 (2018) 517 (1954) 4800 736 955 1330 1470 2430 5100 6050 11200 22400
2021-02-28 06:00 5.30 3390 34900 (2018) 517 (1954) 4800 736 955 1330 1470 2430 5100 6050 11200 22400
2021-02-28 05:30 5.27 3350 34900 (2018) 517 (1954) 4800 736 955 1330 1470 2430 5100 6050 11200 22400
2021-02-28 05:00 5.25 3320 34900 (2018) 517 (1954) 4800 736 955 1330 1470 2430 5100 6050 11200 22400
2021-02-28 04:30 5.22 3270 34900 (2018) 517 (1954) 4800 736 955 1330 1470 2430 5100 6050 11200 22400
2021-02-28 04:00 5.20 3240 34900 (2018) 517 (1954) 4800 736 955 1330 1470 2430 5100 6050 11200 22400
2021-02-28 03:30 5.20 3240 34900 (2018) 517 (1954) 4800 736 955 1330 1470 2430 5100 6050 11200 22400
2021-02-28 03:00 5.18 3210 34900 (2018) 517 (1954) 4800 736 955 1330 1470 2430 5100 6050 11200 22400
2021-02-28 02:30 5.16 3180 34900 (2018) 517 (1954) 4800 736 955 1330 1470 2430 5100 6050 11200 22400
2021-02-28 02:00 5.16 3180 34900 (2018) 517 (1954) 4800 736 955 1330 1470 2430 5100 6050 11200 22400
2021-02-28 01:30 5.16 3180 34900 (2018) 517 (1954) 4800 736 955 1330 1470 2430 5100 6050 11200 22400
2021-02-28 01:00 5.16 3180 34900 (2018) 517 (1954) 4800 736 955 1330 1470 2430 5100 6050 11200 22400
2021-02-28 00:30 5.15 3170 34900 (2018) 517 (1954) 4800 736 955 1330 1470 2430 5100 6050 11200 22400
2021-02-28 00:00 5.14 3160 34900 (2018) 517 (1954) 4800 736 955 1330 1470 2430 5100 6050 11200 22400

A total of 171 rows are displayed for years 1904 through 2020.